Time;durP1;ratioP1;P1;durP2;ratioP2;P2;SDS_P1;SDS_P2;PMS_P1;PMS_P2;Temp;Humidity;BMP_temperature;BMP_pressure;BME280_temperature;BME280_humidity;BME280_pressure;Samples;Min_cycle;Max_cycle;Signal;HPM_P1;HPM_P2
2022/06/21 01:54:59;;;;;;;4.65;2.70;;;24.20;49.30;;;;;;7391977;19;20018;-91
2022/06/21 02:34:30;;;;;;;6.47;3.30;;;23.90;53.70;;;;;;7335889;19;20011;-84
2022/06/21 02:37:02;;;;;;;8.70;3.42;;;23.90;53.70;;;;;;7382729;19;20036;-89
2022/06/21 02:39:32;;;;;;;;;;;23.80;54.10;;;;;;7384894;19;20010;-89
2022/06/21 02:42:09;;;;;;;9.25;3.35;;;23.90;55.50;;;;;;7383601;19;19918;-90
2022/06/21 02:44:42;;;;;;;7.50;3.70;;;23.80;55.80;;;;;;7375503;19;20085;-89
2022/06/21 02:47:14;;;;;;;10.73;4.03;;;23.80;56.10;;;;;;7395383;19;20709;-89
2022/06/21 02:49:49;;;;;;;12.63;3.70;;;23.70;56.50;;;;;;7376795;19;20043;-89
2022/06/21 02:52:24;;;;;;;10.50;4.10;;;23.70;56.80;;;;;;7377747;19;20082;-89
2022/06/21 02:54:58;;;;;;;11.15;3.97;;;23.60;57.00;;;;;;7378058;19;20007;-88
2022/06/21 02:57:33;;;;;;;10.00;3.67;;;23.60;57.70;;;;;;7378026;19;20036;-88
2022/06/21 03:00:02;;;;;;;9.77;4.15;;;23.60;57.90;;;;;;7373219;19;20024;-88
2022/06/21 03:02:35;;;;;;;8.55;3.92;;;23.70;58.40;;;;;;7378075;19;20376;-88
2022/06/21 03:05:13;;;;;;;12.20;4.13;;;23.60;58.50;;;;;;7400510;19;20401;-88
2022/06/21 03:07:45;;;;;;;12.68;4.82;;;23.60;58.90;;;;;;7372285;19;20074;-88
2022/06/21 03:10:19;;;;;;;10.05;4.85;;;23.60;58.70;;;;;;7372216;19;20018;-89
2022/06/21 03:12:51;;;;;;;12.50;4.60;;;23.60;58.20;;;;;;7379585;19;20384;-89
2022/06/21 03:15:21;;;;;;;9.50;4.40;;;23.50;57.60;;;;;;7380357;19;20014;-89
2022/06/21 03:17:54;;;;;;;11.25;4.60;;;23.50;58.00;;;;;;7381411;19;20341;-89
2022/06/21 03:20:27;;;;;;;6.47;4.22;;;23.50;58.60;;;;;;7378841;19;20050;-89
2022/06/21 03:22:58;;;;;;;7.32;4.45;;;23.40;58.30;;;;;;7403436;19;20014;-89
2022/06/21 03:25:30;;;;;;;8.55;4.28;;;23.40;58.60;;;;;;7387035;19;20018;-90
2022/06/21 03:28:01;;;;;;;8.27;4.35;;;23.40;58.20;;;;;;7385160;19;20022;-90
2022/06/21 03:30:33;;;;;;;6.75;4.32;;;23.40;58.10;;;;;;7379621;19;20111;-90
2022/06/21 03:33:04;;;;;;;9.88;4.50;;;23.40;58.20;;;;;;7381329;19;20029;-89
2022/06/21 03:35:37;;;;;;;12.52;4.78;;;23.40;58.10;;;;;;7380894;19;20008;-89
2022/06/21 03:38:06;;;;;;;10.75;4.30;;;23.30;57.30;;;;;;7397301;19;20440;-89
2022/06/21 03:43:24;;;;;;;8.88;4.78;;;23.20;57.40;;;;;;7379131;19;20017;-89
2022/06/21 03:45:57;;;;;;;10.68;5.15;;;23.20;57.90;;;;;;7377748;19;20039;-89
2022/06/21 03:48:30;;;;;;;14.18;4.75;;;23.20;58.90;;;;;;7384864;19;20091;-89
2022/06/21 03:51:08;;;;;;;11.35;4.90;;;23.10;58.10;;;;;;7386012;19;20015;-88
2022/06/21 03:53:45;;;;;;;10.55;5.60;;;23.00;58.50;;;;;;7382001;19;20022;-88
2022/06/21 03:56:22;;;;;;;11.43;5.53;;;23.00;60.70;;;;;;7378699;19;20078;-88
2022/06/21 03:58:57;;;;;;;7.97;4.82;;;23.00;59.70;;;;;;7396771;19;21470;-88
2022/06/21 04:01:31;;;;;;;13.40;5.68;;;22.90;59.20;;;;;;7377334;19;20031;-88
2022/06/21 04:04:09;;;;;;;18.00;6.03;;;22.80;60.10;;;;;;7378799;19;20018;-87
2022/06/21 04:06:48;;;;;;;7.68;5.85;;;22.70;60.50;;;;;;7376979;19;20019;-87
2022/06/21 04:09:24;;;;;;;13.25;6.88;;;22.70;61.00;;;;;;7377672;19;20028;-88
2022/06/21 04:12:01;;;;;;;13.18;5.75;;;22.60;61.40;;;;;;7386650;19;20454;-87
2022/06/21 04:14:36;;;;;;;10.18;6.00;;;22.50;61.60;;;;;;7377379;19;20026;-87
2022/06/21 04:17:11;;;;;;;10.05;5.85;;;22.50;61.10;;;;;;7399328;19;20010;-87
2022/06/21 04:19:47;;;;;;;19.55;7.28;;;22.40;61.10;;;;;;7377783;19;20035;-87
2022/06/21 04:22:24;;;;;;;22.77;6.75;;;22.40;61.10;;;;;;7380579;19;20105;-87
2022/06/21 04:24:58;;;;;;;14.23;6.70;;;22.30;60.00;;;;;;7378427;19;20015;-87
2022/06/21 04:27:33;;;;;;;13.55;6.18;;;22.20;60.80;;;;;;7380686;19;20435;-88
2022/06/21 04:30:05;;;;;;;11.27;6.45;;;22.20;61.80;;;;;;7381704;19;20014;-88
2022/06/21 04:32:43;;;;;;;9.38;6.80;;;22.10;61.40;;;;;;7383343;19;20028;-88
2022/06/21 04:35:19;;;;;;;21.35;7.85;;;22.10;61.30;;;;;;7422207;19;20022;-88
2022/06/21 04:37:53;;;;;;;15.23;8.13;;;22.10;61.90;;;;;;7402411;19;20015;-88
2022/06/21 04:40:55;;;;;;;12.88;6.90;;;22.10;62.70;;;;;;7387272;19;21533;-88
2022/06/21 04:43:33;;;;;;;11.10;7.38;;;22.00;61.90;;;;;;7380260;19;20042;-88
2022/06/21 04:46:15;;;;;;;12.73;7.00;;;21.90;62.20;;;;;;7382347;19;20011;-89
2022/06/21 04:48:51;;;;;;;10.57;6.45;;;21.90;62.50;;;;;;7384974;19;20014;-88
2022/06/21 04:51:32;;;;;;;13.02;6.53;;;22.00;63.40;;;;;;7386642;19;20015;-86
2022/06/21 04:54:04;;;;;;;;;;;22.00;63.80;;;;;;7387979;19;20018;-86
2022/06/21 05:00:03;;;;;;;11.73;6.93;;;22.10;62.50;;;;;;7403602;19;20315;-89
2022/06/21 05:02:35;;;;;;;9.50;6.20;;;22.10;63.60;;;;;;7392895;19;20010;-88
2022/06/21 05:05:09;;;;;;;10.82;6.28;;;22.10;63.40;;;;;;7411097;19;20035;-88
2022/06/21 05:07:48;;;;;;;8.77;5.90;;;22.20;63.40;;;;;;7387327;19;20185;-90
2022/06/21 05:10:24;;;;;;;13.15;5.72;;;22.20;63.60;;;;;;7378295;19;20809;-88
2022/06/21 05:12:56;;;;;;;13.40;6.25;;;22.30;63.40;;;;;;7385229;19;20043;-90
2022/06/21 05:15:41;;;;;;;12.30;7.18;;;22.40;62.70;;;;;;7379696;19;20027;-91
2022/06/21 05:18:15;;;;;;;13.73;6.38;;;22.40;62.70;;;;;;7375515;19;20765;-81
2022/06/21 05:20:51;;;;;;;10.27;6.70;;;22.40;62.60;;;;;;7374950;19;20423;-83
2022/06/21 05:23:25;;;;;;;12.18;7.50;;;22.40;61.00;;;;;;7379206;19;20341;-82
2022/06/21 05:25:59;;;;;;;11.68;7.63;;;22.30;61.70;;;;;;7394669;19;20022;-80
2022/06/21 05:28:37;;;;;;;15.82;7.28;;;22.20;63.10;;;;;;7374792;19;20014;-87
2022/06/21 05:31:14;;;;;;;12.23;6.07;;;22.30;63.30;;;;;;7375223;19;20018;-87
2022/06/21 05:33:46;;;;;;;9.05;5.85;;;22.30;62.80;;;;;;7383495;19;20106;-82
2022/06/21 05:36:18;;;;;;;10.02;6.30;;;22.40;62.60;;;;;;7373304;19;20035;-84
2022/06/21 05:38:54;;;;;;;12.82;6.18;;;22.50;62.60;;;;;;7376238;19;20007;-83
2022/06/21 05:41:48;;;;;;;12.18;6.38;;;22.60;62.90;;;;;;7335423;19;20018;-84
2022/06/21 05:44:25;;;;;;;12.00;6.60;;;22.60;61.70;;;;;;7276006;19;2004497;-87
2022/06/21 05:47:03;;;;;;;11.30;6.88;;;22.60;60.80;;;;;;7400097;19;20022;-87
2022/06/21 05:50:03;;;;;;;10.93;6.40;;;22.70;60.10;;;;;;7382728;19;20042;-87
2022/06/21 05:52:48;;;;;;;10.25;5.95;;;22.60;58.80;;;;;;7378157;19;20096;-88
2022/06/21 05:55:32;;;;;;;12.02;6.03;;;22.60;59.90;;;;;;7378040;19;20704;-87
2022/06/21 05:58:13;;;;;;;15.57;6.35;;;22.70;59.90;;;;;;7378162;19;20042;-87
2022/06/21 06:00:56;;;;;;;11.10;6.25;;;22.60;58.70;;;;;;7377091;19;20324;-87
2022/06/21 06:03:35;;;;;;;11.02;6.03;;;22.70;59.60;;;;;;7378712;19;20014;-86
2022/06/21 06:06:21;;;;;;;6.95;5.50;;;22.70;59.30;;;;;;7378071;19;20476;-86
2022/06/21 06:08:55;;;;;;;12.00;5.53;;;22.60;58.90;;;;;;7382395;19;20648;-86
2022/06/21 06:11:57;;;;;;;10.18;6.32;;;22.60;58.50;;;;;;7375232;19;20026;-87
2022/06/21 06:14:27;;;;;;;14.30;7.28;;;22.70;59.50;;;;;;7379365;19;20047;-87
2022/06/21 06:17:10;;;;;;;11.15;6.00;;;22.70;59.30;;;;;;7395417;19;20050;-87
2022/06/21 06:19:49;;;;;;;13.45;6.15;;;22.70;59.30;;;;;;7375653;19;20015;-87
2022/06/21 06:22:28;;;;;;;9.50;6.13;;;22.80;58.90;;;;;;7375118;19;20018;-86
2022/06/21 06:25:07;;;;;;;11.68;6.55;;;22.70;58.10;;;;;;7375434;19;20367;-86
2022/06/21 06:27:48;;;;;;;10.10;6.40;;;22.70;58.60;;;;;;7376814;19;20086;-87
2022/06/21 06:30:26;;;;;;;11.52;6.78;;;22.80;59.30;;;;;;7379361;19;20015;-86
2022/06/21 06:33:07;;;;;;;11.55;6.75;;;22.90;58.60;;;;;;7378655;19;20011;-86
2022/06/21 06:35:36;;;;;;;10.43;6.28;;;22.90;58.90;;;;;;7374410;19;20018;-86
2022/06/21 06:38:04;;;;;;;9.70;6.63;;;23.00;58.80;;;;;;7394820;19;20098;-86
2022/06/21 06:40:38;;;;;;;10.02;6.85;;;23.00;58.90;;;;;;7372649;19;20018;-86
2022/06/21 06:43:14;;;;;;;14.05;6.72;;;23.10;58.60;;;;;;7372333;19;20018;-87
2022/06/21 06:45:46;;;;;;;11.10;6.13;;;23.10;58.60;;;;;;7374664;19;20059;-87
2022/06/21 06:48:19;;;;;;;9.75;6.20;;;23.20;58.90;;;;;;7377236;19;20017;-86
2022/06/21 06:50:51;;;;;;;12.75;6.57;;;23.30;58.70;;;;;;7383709;19;20043;-86
2022/06/21 06:53:27;;;;;;;11.68;6.07;;;23.30;58.70;;;;;;7379888;19;20018;-86
2022/06/21 06:55:59;;;;;;;16.48;6.22;;;23.30;58.10;;;;;;7408762;19;20023;-87
2022/06/21 06:58:33;;;;;;;12.52;6.70;;;23.40;58.70;;;;;;7378944;19;20013;-86
2022/06/21 07:01:07;;;;;;;7.63;5.88;;;23.40;57.50;;;;;;7379977;19;20015;-87
2022/06/21 07:03:47;;;;;;;10.70;6.38;;;23.40;57.30;;;;;;7382284;19;20024;-86
2022/06/21 07:06:20;;;;;;;11.07;6.60;;;23.50;57.30;;;;;;7379671;19;20015;-87
2022/06/21 07:08:54;;;;;;;10.52;6.63;;;23.50;56.30;;;;;;7378092;19;20090;-86
2022/06/21 07:11:31;;;;;;;12.43;6.57;;;23.50;56.80;;;;;;7380490;19;20018;-86
2022/06/21 07:14:01;;;;;;;12.88;6.10;;;23.60;57.40;;;;;;7399220;19;20023;-86
2022/06/21 07:16:36;;;;;;;11.65;6.57;;;23.60;57.80;;;;;;7380124;19;20006;-86
2022/06/21 07:19:05;;;;;;;9.85;5.85;;;23.60;57.50;;;;;;7384885;19;20010;-87
2022/06/21 07:21:34;;;;;;;11.40;5.70;;;23.70;57.30;;;;;;7383245;19;20014;-87
2022/06/21 07:24:03;;;;;;;11.80;6.13;;;23.70;57.20;;;;;;7383798;19;20014;-86
2022/06/21 07:26:37;;;;;;;11.30;5.72;;;23.70;57.50;;;;;;7383856;19;20380;-86
2022/06/21 07:29:16;;;;;;;19.48;7.43;;;23.80;57.60;;;;;;7401577;19;20018;-87
2022/06/21 07:31:53;;;;;;;10.65;5.90;;;23.90;57.60;;;;;;7380176;19;20122;-87
2022/06/21 07:34:26;;;;;;;10.38;6.35;;;24.00;56.80;;;;;;7378564;19;20038;-87
2022/06/21 07:37:00;;;;;;;15.57;6.50;;;24.10;56.70;;;;;;7379299;19;20042;-87
2022/06/21 07:39:34;;;;;;;8.48;5.20;;;24.10;56.60;;;;;;7378118;19;20043;-87
2022/06/21 07:42:09;;;;;;;12.73;6.28;;;24.20;56.70;;;;;;7388791;19;20015;-87
2022/06/21 07:44:47;;;;;;;18.90;5.93;;;24.30;56.90;;;;;;7384435;19;20018;-87
2022/06/21 07:47:22;;;;;;;11.35;6.57;;;24.40;56.70;;;;;;7390493;19;20035;-87
2022/06/21 07:49:55;;;;;;;8.77;6.13;;;24.50;56.70;;;;;;7421359;19;20014;-87
2022/06/21 07:52:30;;;;;;;12.02;6.10;;;24.60;56.30;;;;;;7381903;19;20120;-87
2022/06/21 07:55:02;;;;;;;16.00;6.20;;;24.70;56.20;;;;;;7379226;19;20074;-87
2022/06/21 07:57:35;;;;;;;10.52;6.13;;;24.70;55.90;;;;;;7377831;19;20039;-87
2022/06/21 08:00:09;;;;;;;13.73;6.60;;;24.70;56.40;;;;;;7377872;19;20034;-86
2022/06/21 08:08:19;;;;;;;12.27;6.40;;;24.80;55.90;;;;;;7395690;19;20006;-86
2022/06/21 08:10:51;;;;;;;14.85;6.43;;;24.70;55.90;;;;;;7394509;19;20025;-86
2022/06/21 08:13:20;;;;;;;12.68;6.70;;;24.70;55.90;;;;;;7375585;19;20063;-87
2022/06/21 08:15:54;;;;;;;11.85;7.00;;;24.70;56.10;;;;;;7376417;19;20014;-87
2022/06/21 08:18:32;;;;;;;12.10;6.60;;;24.70;56.00;;;;;;7374934;19;20383;-86
2022/06/21 08:21:05;;;;;;;16.42;7.68;;;24.60;56.50;;;;;;7376475;19;20560;-86
2022/06/21 08:23:41;;;;;;;13.15;7.60;;;24.60;56.30;;;;;;7375991;19;20144;-87
2022/06/21 08:26:17;;;;;;;14.10;7.18;;;24.60;56.20;;;;;;7397648;19;20016;-86
2022/06/21 08:28:54;;;;;;;13.32;7.25;;;24.50;56.40;;;;;;7384747;19;20031;-86
2022/06/21 08:31:30;;;;;;;13.07;6.85;;;24.50;56.90;;;;;;7377009;19;20018;-86
2022/06/21 08:34:08;;;;;;;10.50;6.70;;;24.50;57.20;;;;;;7375747;19;20519;-86
2022/06/21 08:36:43;;;;;;;11.00;6.82;;;24.60;56.80;;;;;;7375274;19;20082;-86
2022/06/21 08:39:19;;;;;;;11.27;6.90;;;24.70;57.20;;;;;;7376863;19;20015;-87
2022/06/21 08:42:13;;;;;;;11.55;6.82;;;24.80;56.80;;;;;;7375103;19;20054;-87
2022/06/21 08:48:31;;;;;;;13.57;6.93;;;24.90;56.30;;;;;;7382138;19;20466;-86
2022/06/21 08:51:31;;;;;;;12.20;5.90;;;25.00;56.30;;;;;;7402296;19;20002;-86
2022/06/21 08:54:10;;;;;;;11.68;6.80;;;25.10;56.30;;;;;;7398561;19;20017;-86
2022/06/21 08:56:46;;;;;;;9.25;6.20;;;25.30;55.50;;;;;;7393096;19;20014;-86
2022/06/21 08:59:23;;;;;;;10.68;6.75;;;25.30;55.40;;;;;;7390959;19;20014;-85
2022/06/21 09:02:04;;;;;;;8.57;6.13;;;25.30;55.90;;;;;;7403815;19;20018;-86
2022/06/21 09:04:47;;;;;;;9.57;6.40;;;25.30;56.40;;;;;;7381264;19;20010;-86
2022/06/21 09:07:36;;;;;;;8.30;6.70;;;25.30;56.10;;;;;;7381417;19;20018;-86
2022/06/21 09:10:29;;;;;;;10.82;6.05;;;25.30;55.80;;;;;;7371191;19;20026;-87
2022/06/21 09:13:14;;;;;;;8.40;5.93;;;25.30;56.10;;;;;;7379025;19;20014;-86
2022/06/21 09:15:51;;;;;;;12.52;6.55;;;25.40;56.00;;;;;;7386358;19;20027;-86
2022/06/21 09:18:37;;;;;;;11.23;6.68;;;25.50;55.70;;;;;;7378177;19;20077;-86
2022/06/21 09:21:12;;;;;;;12.00;5.95;;;25.60;55.90;;;;;;7377386;19;20022;-86
2022/06/21 09:23:57;;;;;;;10.30;6.20;;;25.60;55.60;;;;;;7377020;19;20380;-86
2022/06/21 09:26:34;;;;;;;10.48;6.55;;;25.60;55.70;;;;;;7376935;19;20011;-86
2022/06/21 09:29:13;;;;;;;12.93;6.88;;;25.60;55.40;;;;;;7396716;19;20022;-86
2022/06/21 09:31:54;;;;;;;11.85;7.28;;;25.60;55.00;;;;;;7376660;19;20007;-86
2022/06/21 09:34:28;;;;;;;;;;;25.50;54.40;;;;;;7376535;19;20102;-86
2022/06/21 09:37:04;;;;;;;9.20;6.82;;;25.60;54.80;;;;;;7378216;19;19958;-86
2022/06/21 09:39:42;;;;;;;10.73;6.72;;;25.40;54.90;;;;;;7386682;19;20027;-87
2022/06/21 09:42:20;;;;;;;9.57;7.07;;;25.30;55.20;;;;;;7376066;19;20018;-86
2022/06/21 09:44:54;;;;;;;12.27;6.57;;;25.30;55.50;;;;;;7378592;19;20014;-86
2022/06/21 09:47:31;;;;;;;10.52;6.85;;;25.30;55.60;;;;;;7379295;19;20022;-87
2022/06/21 09:50:08;;;;;;;9.82;6.50;;;25.20;55.90;;;;;;7400940;19;20423;-87
2022/06/21 09:52:43;;;;;;;11.98;6.65;;;25.30;55.90;;;;;;7380792;19;20011;-86
2022/06/21 09:55:22;;;;;;;10.77;6.68;;;25.30;56.00;;;;;;7380323;19;20038;-86
2022/06/21 09:57:58;;;;;;;12.90;6.00;;;25.30;56.30;;;;;;7381952;19;20085;-86
2022/06/21 10:00:34;;;;;;;9.73;6.57;;;25.30;56.50;;;;;;7394676;19;20018;-87
2022/06/21 10:03:17;;;;;;;8.70;6.55;;;25.30;56.90;;;;;;7403622;19;20015;-86
2022/06/21 10:05:53;;;;;;;8.80;6.05;;;25.30;56.30;;;;;;7402891;19;20018;-87
2022/06/21 10:08:34;;;;;;;13.43;6.90;;;25.20;56.40;;;;;;7398510;19;20035;-86
2022/06/21 10:11:15;;;;;;;8.23;5.50;;;25.00;56.70;;;;;;7420135;19;20010;-86
2022/06/21 10:14:07;;;;;;;6.95;5.63;;;24.90;57.00;;;;;;7400230;19;20033;-87
2022/06/21 10:17:04;;;;;;;8.80;5.60;;;24.90;57.30;;;;;;7399006;19;20031;-86
2022/06/21 10:22:36;;;;;;;11.10;6.00;;;25.00;57.80;;;;;;7406038;19;20007;-87
2022/06/21 10:25:28;;;;;;;9.48;5.00;;;24.90;58.40;;;;;;7406702;19;20014;-87
2022/06/21 10:28:28;;;;;;;10.55;5.25;;;25.00;57.40;;;;;;7399561;19;20007;-87
2022/06/21 10:31:13;;;;;;;11.98;5.72;;;25.00;57.60;;;;;;7407303;19;20097;-87
2022/06/21 10:34:11;;;;;;;8.18;5.28;;;25.10;58.20;;;;;;7408142;19;20035;-87
2022/06/21 10:36:56;;;;;;;7.20;5.00;;;25.20;58.40;;;;;;7408804;19;20006;-87
2022/06/21 10:39:49;;;;;;;9.77;4.88;;;25.30;57.60;;;;;;7408219;19;20010;-86
2022/06/21 10:45:31;;;;;;;7.88;4.93;;;25.30;56.50;;;;;;7402972;19;20031;-87
2022/06/21 10:48:33;;;;;;;7.30;4.95;;;25.30;56.80;;;;;;7394284;19;20010;-87
2022/06/21 10:51:09;;;;;;;7.72;5.20;;;25.40;56.90;;;;;;7387196;19;20007;-86
2022/06/21 10:53:59;;;;;;;7.30;5.18;;;25.50;56.70;;;;;;7383445;19;20128;-87
2022/06/21 11:01:16;;;;;;;13.35;6.07;;;25.70;56.80;;;;;;7397341;19;20053;-87
2022/06/21 11:02:38;;;;;;;6.97;5.00;;;25.70;56.30;;;;;;7380513;19;20666;-87
2022/06/21 11:05:16;;;;;;;12.73;5.88;;;25.80;56.30;;;;;;7400796;19;20018;-87
2022/06/21 11:07:51;;;;;;;7.47;4.80;;;25.80;56.10;;;;;;7378592;19;20022;-87
2022/06/21 11:10:25;;;;;;;9.88;4.40;;;25.90;55.90;;;;;;7372752;19;20033;-77
2022/06/21 11:13:01;;;;;;;8.05;4.68;;;25.90;56.00;;;;;;7373410;19;20035;-77
2022/06/21 11:15:41;;;;;;;8.43;5.20;;;26.00;56.30;;;;;;7374790;19;20328;-75
2022/06/21 11:18:21;;;;;;;8.30;5.55;;;26.00;55.90;;;;;;7373468;19;20029;-75
2022/06/21 11:20:59;;;;;;;12.35;4.82;;;26.10;55.10;;;;;;7372751;19;20027;-77
2022/06/21 11:23:40;;;;;;;5.50;4.00;;;26.10;55.80;;;;;;7373118;19;20117;-78
2022/06/21 11:26:13;;;;;;;;;;;26.10;55.90;;;;;;7393624;19;20015;-76
2022/06/21 11:28:49;;;;;;;6.35;4.65;;;26.20;56.10;;;;;;7374239;19;19925;-76
2022/06/21 11:31:26;;;;;;;11.35;4.20;;;26.30;55.90;;;;;;7374756;19;20032;-76
2022/06/21 11:34:05;;;;;;;7.78;4.78;;;26.30;55.90;;;;;;7372923;19;20022;-76
2022/06/21 11:36:42;;;;;;;8.73;5.22;;;26.40;55.30;;;;;;7376684;19;20482;-76
2022/06/21 11:39:25;;;;;;;14.52;7.32;;;26.50;55.40;;;;;;7375256;19;20017;-76
2022/06/21 11:42:09;;;;;;;9.93;6.47;;;26.50;54.10;;;;;;7375172;19;20380;-77
2022/06/21 11:45:09;;;;;;;10.35;5.93;;;26.60;54.10;;;;;;7372830;19;20021;-76
2022/06/21 11:47:57;;;;;;;16.15;7.90;;;26.60;54.10;;;;;;7376031;19;20035;-76
2022/06/21 11:50:33;;;;;;;15.50;7.72;;;26.70;53.90;;;;;;7376778;19;20416;-76
2022/06/21 11:53:24;;;;;;;13.88;8.00;;;26.60;53.60;;;;;;7394529;19;20018;-76
2022/06/21 11:55:57;;;;;;;;;;;26.40;53.40;;;;;;7376108;19;20017;-76
2022/06/21 11:58:31;;;;;;;12.02;6.63;;;26.60;54.00;;;;;;7374479;19;19958;-76
2022/06/21 12:01:09;;;;;;;12.00;6.10;;;26.60;54.40;;;;;;7374880;19;20090;-76
2022/06/21 12:03:51;;;;;;;12.52;5.68;;;26.60;54.40;;;;;;7375936;19;20626;-76
2022/06/21 12:06:38;;;;;;;10.20;6.72;;;26.60;54.10;;;;;;7373202;19;20007;-76
2022/06/21 12:09:18;;;;;;;12.00;7.22;;;26.70;54.00;;;;;;7375448;19;20016;-76
2022/06/21 12:12:22;;;;;;;12.13;5.90;;;26.60;53.50;;;;;;7375861;19;20021;-76
2022/06/21 12:15:19;;;;;;;9.40;5.75;;;26.70;53.60;;;;;;7374090;19;20019;-76
2022/06/21 12:17:52;;;;;;;13.90;6.15;;;26.70;53.10;;;;;;7374864;19;20014;-78
2022/06/21 12:20:26;;;;;;;13.02;6.65;;;26.90;53.70;;;;;;7373732;19;20057;-77
2022/06/21 12:23:05;;;;;;;11.05;6.40;;;27.00;53.40;;;;;;7395691;19;20085;-77
2022/06/21 12:25:34;;;;;;;15.13;7.45;;;27.20;53.60;;;;;;7373591;19;20084;-76
2022/06/21 12:28:03;;;;;;;12.38;7.07;;;27.20;53.00;;;;;;7373682;19;20017;-76
2022/06/21 12:30:33;;;;;;;13.40;8.00;;;27.20;52.80;;;;;;7373780;19;20082;-76
2022/06/21 12:33:06;;;;;;;10.80;7.68;;;27.20;51.90;;;;;;7371359;19;20015;-77
2022/06/21 12:35:46;;;;;;;13.52;6.07;;;27.30;52.20;;;;;;7372900;19;20008;-76
2022/06/21 12:38:26;;;;;;;10.90;7.38;;;27.40;52.80;;;;;;7387130;19;20030;-76
2022/06/21 12:41:16;;;;;;;12.40;7.45;;;27.50;53.20;;;;;;7396216;19;20014;-77
2022/06/21 12:43:54;;;;;;;10.70;6.25;;;27.40;52.50;;;;;;7372478;19;20506;-76
2022/06/21 12:46:30;;;;;;;10.20;6.80;;;27.40;52.50;;;;;;7372263;19;20013;-76
2022/06/21 12:49:30;;;;;;;14.27;7.22;;;27.40;51.90;;;;;;7372907;19;20016;-76
2022/06/21 12:52:03;;;;;;;11.80;7.33;;;27.40;52.90;;;;;;7372573;19;20017;-77
2022/06/21 12:54:50;;;;;;;11.65;7.93;;;27.50;52.20;;;;;;7373361;19;20789;-76
2022/06/21 12:57:37;;;;;;;14.50;6.57;;;27.70;51.30;;;;;;7371983;19;20506;-77
2022/06/21 13:00:11;;;;;;;10.70;6.10;;;27.80;51.10;;;;;;7370708;19;20410;-76
2022/06/21 13:03:04;;;;;;;12.15;6.70;;;28.00;51.30;;;;;;7371998;19;20015;-76
2022/06/21 13:05:40;;;;;;;19.55;11.20;;;28.00;51.10;;;;;;7370232;19;21481;-76
2022/06/21 13:08:39;;;;;;;11.23;7.53;;;27.90;50.90;;;;;;7392671;19;20019;-76
2022/06/21 13:11:24;;;;;;;14.50;8.65;;;27.80;51.10;;;;;;7370835;19;20006;-76
2022/06/21 13:14:13;;;;;;;13.70;7.22;;;27.70;50.90;;;;;;7370531;19;20017;-76
2022/06/21 13:16:51;;;;;;;13.60;7.95;;;27.70;51.00;;;;;;7369771;19;20430;-76
2022/06/21 13:19:37;;;;;;;15.98;8.50;;;27.80;49.80;;;;;;7369697;19;20117;-75
2022/06/21 13:22:23;;;;;;;13.10;7.93;;;27.90;50.00;;;;;;7370359;19;20010;-76
2022/06/21 13:25:03;;;;;;;12.65;7.90;;;27.90;49.30;;;;;;7370247;19;20121;-76
2022/06/21 13:27:47;;;;;;;15.02;6.47;;;28.00;49.20;;;;;;7369070;19;20017;-77
2022/06/21 13:30:36;;;;;;;11.60;6.95;;;28.10;49.70;;;;;;7370276;19;20022;-78
2022/06/21 13:33:14;;;;;;;14.13;6.93;;;28.20;49.20;;;;;;7371346;19;20026;-77
2022/06/21 13:35:50;;;;;;;13.45;6.28;;;28.20;49.70;;;;;;7369009;19;20010;-77
2022/06/21 13:38:25;;;;;;;14.13;7.53;;;28.30;50.20;;;;;;7369298;19;20022;-77
2022/06/21 13:41:01;;;;;;;11.60;6.90;;;28.40;48.80;;;;;;7390598;19;20560;-76
2022/06/21 13:43:38;;;;;;;9.20;5.18;;;28.40;49.40;;;;;;7371260;19;20089;-77
2022/06/21 13:46:20;;;;;;;9.88;6.00;;;28.40;49.80;;;;;;7370634;19;20011;-76
2022/06/21 13:48:53;;;;;;;10.13;5.63;;;28.30;49.60;;;;;;7370354;19;20502;-77
2022/06/21 13:51:37;;;;;;;12.05;4.60;;;28.40;49.90;;;;;;7370171;19;20742;-77
2022/06/21 13:54:15;;;;;;;10.80;4.35;;;28.40;50.20;;;;;;7372224;19;20114;-77
2022/06/21 13:56:51;;;;;;;9.35;5.47;;;28.60;49.70;;;;;;7368116;19;20027;-77
2022/06/21 13:59:31;;;;;;;11.30;4.88;;;28.80;49.80;;;;;;7370885;19;20037;-78
2022/06/21 14:02:05;;;;;;;9.20;5.70;;;29.00;49.90;;;;;;7393563;19;20118;-77
2022/06/21 14:04:46;;;;;;;8.93;5.43;;;29.10;49.00;;;;;;7371396;19;20118;-77
2022/06/21 14:07:25;;;;;;;7.65;4.53;;;29.10;48.60;;;;;;7370845;19;20115;-77
2022/06/21 14:09:59;;;;;;;5.97;4.45;;;29.20;48.80;;;;;;7370079;19;20037;-77
2022/06/21 14:12:34;;;;;;;12.25;5.07;;;29.30;48.10;;;;;;7372016;19;20438;-77
2022/06/21 14:15:13;;;;;;;12.07;5.18;;;29.30;47.60;;;;;;7371201;19;20355;-77
2022/06/21 14:17:49;;;;;;;9.32;4.80;;;29.30;47.60;;;;;;7372093;19;20497;-77
2022/06/21 14:20:28;;;;;;;9.45;4.72;;;29.30;47.60;;;;;;7371274;19;20722;-77
2022/06/21 14:23:09;;;;;;;8.10;5.03;;;29.20;47.70;;;;;;7394491;19;20082;-77
2022/06/21 14:25:46;;;;;;;11.35;4.93;;;29.20;47.30;;;;;;7371445;19;20034;-76
2022/06/21 14:28:22;;;;;;;12.90;5.60;;;29.40;47.80;;;;;;7369197;19;20039;-76
2022/06/21 14:31:00;;;;;;;11.18;4.50;;;29.50;47.90;;;;;;7370668;19;20082;-76
2022/06/21 14:33:34;;;;;;;9.25;4.60;;;29.60;47.60;;;;;;7371739;19;20007;-79
2022/06/21 14:36:10;;;;;;;7.32;4.22;;;29.80;47.20;;;;;;7370677;19;20612;-76
2022/06/21 14:38:49;;;;;;;13.10;4.45;;;29.80;47.50;;;;;;7371058;19;20018;-76
2022/06/21 14:41:25;;;;;;;10.18;4.15;;;29.80;47.20;;;;;;7370583;19;20754;-76
2022/06/21 14:43:58;;;;;;;10.88;4.85;;;29.90;47.70;;;;;;7392353;19;20347;-76
2022/06/21 14:46:35;;;;;;;7.85;4.20;;;29.90;46.80;;;;;;7368932;19;20428;-76
2022/06/21 14:49:10;;;;;;;8.88;3.72;;;30.00;46.80;;;;;;7367325;19;20057;-76
2022/06/21 14:51:49;;;;;;;9.25;3.85;;;30.20;47.20;;;;;;7370955;19;20011;-76
2022/06/21 14:54:38;;;;;;;8.00;3.88;;;30.20;47.30;;;;;;7371124;19;20038;-76
2022/06/21 14:57:22;;;;;;;7.47;3.97;;;30.40;47.40;;;;;;7370203;19;20334;-76
2022/06/21 15:00:04;;;;;;;7.30;4.20;;;30.60;47.30;;;;;;7369450;19;20006;-76
2022/06/21 15:02:54;;;;;;;9.48;3.80;;;30.50;46.30;;;;;;7369912;19;20018;-76
2022/06/21 15:05:34;;;;;;;7.60;3.72;;;30.50;46.90;;;;;;7369331;19;20027;-76
2022/06/21 15:08:09;;;;;;;7.50;4.37;;;30.60;46.70;;;;;;7393904;19;20162;-76
2022/06/21 15:10:41;;;;;;;11.15;3.88;;;30.70;46.30;;;;;;7374738;19;20006;-76
2022/06/21 15:13:19;;;;;;;9.23;4.22;;;30.90;45.90;;;;;;7376402;19;20026;-76
2022/06/21 15:15:50;;;;;;;7.28;3.65;;;31.00;45.20;;;;;;7375710;19;20021;-76
2022/06/21 15:18:28;;;;;;;6.95;3.80;;;31.20;45.40;;;;;;7377809;19;20018;-76
2022/06/21 15:21:07;;;;;;;6.72;3.28;;;31.30;45.00;;;;;;7375559;19;20029;-77
2022/06/21 15:23:40;;;;;;;8.77;3.80;;;31.40;44.80;;;;;;7377326;19;21128;-76
2022/06/21 15:26:16;;;;;;;5.93;3.53;;;31.50;44.80;;;;;;7398592;19;20090;-76
2022/06/21 15:28:48;;;;;;;11.25;3.60;;;31.40;44.80;;;;;;7373685;19;20308;-76
2022/06/21 15:31:19;;;;;;;6.25;3.33;;;31.40;44.20;;;;;;7376321;19;20014;-77
2022/06/21 15:33:55;;;;;;;5.72;3.60;;;31.30;44.50;;;;;;7375917;19;20010;-76
2022/06/21 15:36:44;;;;;;;12.70;3.92;;;31.00;44.30;;;;;;7375567;19;20025;-76
2022/06/21 15:39:23;;;;;;;7.07;3.20;;;30.90;45.40;;;;;;7376969;19;20020;-76
2022/06/21 15:42:01;;;;;;;6.50;3.38;;;31.40;45.50;;;;;;7373458;19;20094;-76
2022/06/21 15:44:37;;;;;;;5.95;3.25;;;31.90;43.70;;;;;;7372783;19;20022;-76
2022/06/21 15:52:44;;;;;;;7.95;3.80;;;32.00;42.40;;;;;;7375111;19;20010;-76
2022/06/21 15:55:20;;;;;;;7.57;3.88;;;31.50;42.90;;;;;;7374719;19;20014;-77
2022/06/21 15:57:58;;;;;;;8.30;3.40;;;31.20;43.10;;;;;;7376060;19;20479;-77
2022/06/21 16:00:33;;;;;;;8.02;3.72;;;31.00;44.30;;;;;;7373005;19;20041;-77
2022/06/21 16:03:08;;;;;;;4.25;3.15;;;31.10;45.50;;;;;;7375944;19;20014;-77
2022/06/21 16:05:46;;;;;;;8.90;3.75;;;31.50;44.80;;;;;;7375180;19;20060;-77
2022/06/21 16:08:22;;;;;;;7.50;3.25;;;32.20;44.50;;;;;;7387522;19;20588;-78
2022/06/21 16:10:53;;;;;;;5.32;2.75;;;33.10;42.40;;;;;;7395085;19;20676;-77
2022/06/21 16:13:24;;;;;;;;;;;34.10;41.70;;;;;;7374175;19;20033;-77
2022/06/21 16:15:56;;;;;;;7.18;3.28;;;35.00;40.60;;;;;;7375062;19;19921;-77
2022/06/21 16:18:30;;;;;;;9.25;3.10;;;35.90;38.90;;;;;;7374071;19;20010;-77
2022/06/21 16:21:02;;;;;;;5.32;4.03;;;36.60;36.90;;;;;;7374811;19;20007;-77
2022/06/21 16:23:36;;;;;;;6.10;2.60;;;37.20;36.80;;;;;;7371916;19;20010;-77
2022/06/21 16:26:14;;;;;;;5.93;2.67;;;37.70;36.00;;;;;;7396144;19;20314;-77
2022/06/21 16:29:00;;;;;;;5.28;2.35;;;38.10;35.40;;;;;;7374659;19;20011;-77
2022/06/21 16:34:19;;;;;;;5.72;2.67;;;37.80;34.40;;;;;;7375303;19;20015;-77
2022/06/21 16:36:54;;;;;;;8.75;3.08;;;36.70;35.50;;;;;;7373347;19;20026;-77
2022/06/21 16:39:31;;;;;;;8.00;2.97;;;35.70;36.80;;;;;;7374556;19;20082;-77
2022/06/21 16:44:51;;;;;;;6.32;2.70;;;35.00;39.40;;;;;;7376736;19;20024;-77